Time;durP1;ratioP1;P1;durP2;ratioP2;P2;SDS_P1;SDS_P2;PMS_P1;PMS_P2;Temp;Humidity;BMP_temperature;BMP_pressure;BME280_temperature;BME280_humidity;BME280_pressure;Samples;Min_cycle;Max_cycle;Signal;HPM_P1;HPM_P2
2023/07/17 00:00:36;;;;;;;4.45;1.80;;;;;;;13.37;89.48;100367.69;4995203;28;20129;-40
2023/07/17 00:03:12;;;;;;;7.57;4.85;;;;;;;13.34;89.53;100369.25;4974855;28;20146;-40
2023/07/17 00:05:40;;;;;;;9.20;2.50;;;;;;;13.33;89.72;100375.19;4975207;28;20466;-40
2023/07/17 00:08:07;;;;;;;6.72;2.35;;;;;;;13.33;89.89;100372.41;4975356;28;20584;-40
2023/07/17 00:10:34;;;;;;;3.13;1.98;;;;;;;13.33;89.93;100378.78;4975492;28;20035;-41
2023/07/17 00:13:01;;;;;;;7.22;2.90;;;;;;;13.29;90.11;100374.34;4975403;28;20145;-40
2023/07/17 00:15:27;;;;;;;5.35;2.47;;;;;;;13.27;90.24;100379.47;4975142;28;20088;-41
2023/07/17 00:17:54;;;;;;;4.63;2.20;;;;;;;13.27;90.36;100373.91;4974370;28;20101;-41
2023/07/17 00:20:21;;;;;;;4.32;2.22;;;;;;;13.27;90.47;100377.47;4973451;28;20051;-41
2023/07/17 00:22:48;;;;;;;6.07;2.60;;;;;;;13.29;90.49;100383.47;4983215;28;20047;-41
2023/07/17 00:25:14;;;;;;;5.15;2.42;;;;;;;13.29;90.70;100382.69;4974097;28;20045;-41
2023/07/17 00:27:41;;;;;;;3.78;2.55;;;;;;;13.28;90.62;100370.75;4977588;28;20047;-40
2023/07/17 00:30:08;;;;;;;6.45;3.00;;;;;;;13.28;90.62;100381.06;4974675;28;20454;-40
2023/07/17 00:32:35;;;;;;;5.72;2.33;;;;;;;13.25;90.58;100379.84;4975657;28;20137;-40
2023/07/17 00:35:02;;;;;;;4.65;2.75;;;;;;;13.24;90.71;100369.06;4974585;28;20497;-40
2023/07/17 00:37:29;;;;;;;4.22;2.63;;;;;;;13.21;90.82;100381.75;4974113;28;20499;-40
2023/07/17 00:39:55;;;;;;;7.00;2.95;;;;;;;13.21;90.95;100375.41;4974909;28;20042;-40
2023/07/17 00:42:22;;;;;;;6.80;2.67;;;;;;;13.20;91.02;100384.91;4975070;28;20055;-40
2023/07/17 00:44:49;;;;;;;8.13;2.92;;;;;;;13.18;91.16;100392.81;4974662;28;20074;-40
2023/07/17 00:47:16;;;;;;;7.43;3.28;;;;;;;13.15;91.35;100399.94;4973464;28;20081;-42
2023/07/17 00:49:43;;;;;;;11.32;3.97;;;;;;;13.19;91.53;100391.63;4973988;28;20512;-40
2023/07/17 00:52:10;;;;;;;6.85;3.45;;;;;;;13.16;91.63;100397.94;4974564;28;20062;-41
2023/07/17 00:54:40;;;;;;;5.00;2.50;;;;;;;13.15;91.63;100399.94;4956973;28;20053;-40
2023/07/17 00:57:09;;;;;;;5.20;2.78;;;;;;;13.14;91.99;100403.88;4974766;28;20154;-41
2023/07/17 00:59:36;;;;;;;8.13;3.08;;;;;;;13.15;92.12;100405.50;4957031;28;20153;-40
2023/07/17 01:02:03;;;;;;;7.97;3.33;;;;;;;13.18;91.93;100395.59;4985868;28;20096;-40
2023/07/17 01:04:29;;;;;;;6.30;4.57;;;;;;;13.22;92.26;100404.78;4994163;28;20459;-40
2023/07/17 01:06:57;;;;;;;6.10;3.33;;;;;;;13.24;92.04;100403.25;4993489;28;20046;-45
2023/07/17 01:09:24;;;;;;;7.75;3.25;;;;;;;13.28;92.40;100408.88;4993683;28;20054;-40
2023/07/17 01:11:51;;;;;;;9.90;3.40;;;;;;;13.28;92.23;100404.13;4992939;28;20058;-41
2023/07/17 01:14:19;;;;;;;7.35;3.53;;;;;;;13.28;92.49;100404.13;4992310;28;20092;-40
2023/07/17 01:16:48;;;;;;;8.88;3.63;;;;;;;13.31;92.70;100408.13;4992160;28;20042;-42
2023/07/17 01:19:15;;;;;;;7.57;4.50;;;;;;;13.32;92.67;100415.28;4992441;28;20132;-40
2023/07/17 01:21:59;;;;;;;8.60;3.78;;;;;;;13.30;93.11;100403.75;4993463;28;20066;-40
2023/07/17 01:24:27;;;;;;;7.20;3.00;;;;;;;13.31;93.18;100408.13;4993457;28;20047;-40
2023/07/17 01:26:54;;;;;;;6.30;3.58;;;;;;;13.32;92.90;100409.72;4991917;28;20463;-41
2023/07/17 01:29:21;;;;;;;6.90;3.80;;;;;;;13.33;93.26;100412.16;4990324;28;20108;-40
2023/07/17 01:31:47;;;;;;;8.13;3.28;;;;;;;13.30;93.35;100409.31;4991454;28;20049;-41
2023/07/17 01:34:16;;;;;;;9.10;3.22;;;;;;;13.28;93.36;100408.88;4992082;28;20137;-40
2023/07/17 01:36:43;;;;;;;8.75;4.35;;;;;;;13.26;93.33;100416.78;4991777;28;20054;-42
2023/07/17 01:39:10;;;;;;;7.65;3.33;;;;;;;13.23;93.27;100423.91;4992830;28;20050;-40
2023/07/17 01:41:37;;;;;;;8.15;3.35;;;;;;;13.18;93.56;100413.09;4993222;28;20492;-40
2023/07/17 01:44:04;;;;;;;10.85;4.53;;;;;;;13.13;93.60;100420.94;4984403;28;20401;-40
2023/07/17 01:46:31;;;;;;;10.23;4.25;;;;;;;13.09;93.88;100422.81;4987557;28;20523;-41
2023/07/17 01:48:58;;;;;;;5.43;3.10;;;;;;;13.05;94.16;100419.16;4973496;28;20566;-41
2023/07/17 01:51:24;;;;;;;10.50;4.35;;;;;;;13.06;94.24;100423.53;4990923;28;20069;-40
2023/07/17 01:53:51;;;;;;;10.77;5.03;;;;;;;13.04;94.25;100426.69;4975125;28;20078;-40
2023/07/17 01:56:18;;;;;;;10.10;4.22;;;;;;;13.04;94.33;100421.13;4992049;28;20416;-40
2023/07/17 01:58:45;;;;;;;8.32;3.95;;;;;;;13.01;94.29;100423.84;4989953;28;20451;-40
2023/07/17 02:01:11;;;;;;;9.93;4.57;;;;;;;13.00;94.55;100430.59;4992388;28;20487;-41
2023/07/17 02:03:38;;;;;;;8.38;4.10;;;;;;;12.98;94.66;100438.47;4992258;28;20056;-41
2023/07/17 02:06:06;;;;;;;26.05;5.35;;;;;;;12.96;94.85;100435.25;4992481;28;20050;-40
2023/07/17 02:08:33;;;;;;;9.75;4.05;;;;;;;12.96;95.01;100435.25;4992805;28;20061;-40
2023/07/17 02:11:00;;;;;;;6.72;3.05;;;;;;;12.95;95.03;100433.66;4992738;28;20492;-40
2023/07/17 02:13:26;;;;;;;14.57;4.45;;;;;;;12.95;95.08;100440.00;4992670;28;20050;-40
2023/07/17 02:15:53;;;;;;;9.88;3.92;;;;;;;12.96;95.42;100446.38;4991504;28;20412;-40
2023/07/17 02:18:20;;;;;;;6.55;4.32;;;;;;;12.97;95.40;100443.25;4986516;28;20057;-40
2023/07/17 02:20:49;;;;;;;7.43;4.18;;;;;;;12.97;95.56;100436.88;4991371;28;20049;-47
2023/07/17 02:23:16;;;;;;;11.73;3.42;;;;;;;12.99;95.65;100446.44;4968339;28;20404;-41
2023/07/17 02:25:43;;;;;;;7.78;4.30;;;;;;;13.03;95.71;100435.38;4991808;28;20089;-40
2023/07/17 02:28:10;;;;;;;8.57;4.22;;;;;;;13.04;95.52;100448.13;4988364;28;20049;-40
2023/07/17 02:30:37;;;;;;;9.75;4.35;;;;;;;13.01;95.59;100443.28;4972749;28;20050;-41
2023/07/17 02:33:03;;;;;;;5.78;3.03;;;;;;;12.94;95.73;100441.19;4988921;28;20503;-41
2023/07/17 02:35:30;;;;;;;8.05;3.33;;;;;;;12.91;95.66;100439.16;4980515;28;20046;-41
2023/07/17 02:37:57;;;;;;;9.07;3.65;;;;;;;12.90;95.93;100433.94;4990957;28;20452;-41
2023/07/17 02:40:24;;;;;;;6.55;3.13;;;;;;;12.88;95.81;100441.84;4990086;28;20483;-40
2023/07/17 02:42:50;;;;;;;7.38;3.60;;;;;;;12.83;96.08;100438.22;4991650;28;20046;-40
2023/07/17 02:45:17;;;;;;;6.45;3.08;;;;;;;12.78;96.27;100438.53;4989690;28;20129;-41
2023/07/17 02:47:44;;;;;;;7.88;3.50;;;;;;;12.75;96.21;100453.13;4989416;28;20057;-40
2023/07/17 02:50:11;;;;;;;9.60;4.30;;;;;;;12.74;96.45;100454.28;4991356;28;20064;-40
2023/07/17 02:52:38;;;;;;;4.47;3.03;;;;;;;12.72;96.42;100453.88;4990498;28;20485;-41
2023/07/17 02:55:05;;;;;;;7.10;3.75;;;;;;;12.70;96.77;100460.97;4991134;28;20500;-41
2023/07/17 02:57:34;;;;;;;5.80;4.03;;;;;;;12.70;96.44;100456.22;4967408;28;20045;-46
2023/07/17 03:00:12;;;;;;;6.68;3.03;;;;;;;12.68;96.68;100454.97;4984799;28;20481;-41
2023/07/17 03:02:54;;;;;;;5.65;3.20;;;;;;;12.68;96.67;100464.09;4970436;22;1391891;-41
2023/07/17 03:05:21;;;;;;;4.88;3.08;;;;;;;12.69;96.75;100464.91;5061515;28;20152;-43
2023/07/17 03:07:48;;;;;;;8.73;3.30;;;;;;;12.71;96.81;100462.56;5054712;28;20140;-42
2023/07/17 03:10:15;;;;;;;5.93;3.55;;;;;;;12.77;96.73;100463.88;5067708;28;20131;-41
2023/07/17 03:12:42;;;;;;;7.40;3.30;;;;;;;12.78;96.71;100463.53;5067533;28;20139;-41
2023/07/17 03:15:10;;;;;;;13.10;3.13;;;;;;;12.81;97.01;100467.53;5065205;28;20060;-41
2023/07/17 03:17:37;;;;;;;7.53;3.25;;;;;;;12.79;96.92;100465.09;5062238;28;20666;-41
2023/07/17 03:20:06;;;;;;;5.43;3.42;;;;;;;12.78;96.82;100469.06;5067556;28;20540;-41
2023/07/17 03:22:33;;;;;;;5.55;3.03;;;;;;;12.79;97.17;100456.78;5055231;28;20064;-41
2023/07/17 03:24:59;;;;;;;7.80;3.47;;;;;;;12.79;97.09;100465.09;5062485;28;20040;-42
2023/07/17 03:27:26;;;;;;;8.32;3.40;;;;;;;12.77;97.16;100463.88;5066739;28;20080;-41
2023/07/17 03:29:53;;;;;;;9.82;3.63;;;;;;;12.75;97.16;100469.81;5066678;28;20143;-41
2023/07/17 03:32:20;;;;;;;7.65;3.70;;;;;;;12.72;97.38;100472.50;5067810;28;20402;-41
2023/07/17 03:34:46;;;;;;;12.88;3.58;;;;;;;12.71;97.48;100474.47;5066958;28;20048;-41
2023/07/17 03:37:13;;;;;;;8.32;4.68;;;;;;;12.69;97.63;100485.16;5065255;28;20099;-42
2023/07/17 03:39:40;;;;;;;12.73;3.30;;;;;;;12.68;97.62;100485.53;5064950;28;20048;-41
2023/07/17 03:42:10;;;;;;;5.60;2.67;;;;;;;12.66;97.65;100490.63;5057007;28;20045;-40
2023/07/17 03:44:38;;;;;;;6.20;3.10;;;;;;;12.60;97.96;100490.09;5065116;28;20041;-41
2023/07/17 03:47:06;;;;;;;4.78;2.35;;;;;;;12.58;98.04;100491.63;5066145;28;20048;-41
2023/07/17 03:49:33;;;;;;;7.57;2.95;;;;;;;12.58;98.18;100503.56;5047846;28;20045;-44
2023/07/17 03:51:59;;;;;;;5.82;2.90;;;;;;;12.58;98.10;100503.56;5065448;28;20505;-41
2023/07/17 03:54:27;;;;;;;5.90;2.70;;;;;;;12.59;98.24;100501.59;5064781;28;20510;-41
2023/07/17 03:56:54;;;;;;;7.32;2.47;;;;;;;12.59;98.26;100504.38;5065056;28;20048;-41
2023/07/17 03:59:23;;;;;;;9.27;3.03;;;;;;;12.57;98.39;100506.72;5066011;28;20494;-41
2023/07/17 04:01:50;;;;;;;3.45;2.35;;;;;;;12.57;98.50;100504.75;5065123;28;20052;-41
2023/07/17 04:04:16;;;;;;;6.97;3.15;;;;;;;12.58;98.56;100506.34;5065058;28;20045;-41
2023/07/17 04:06:43;;;;;;;5.97;2.70;;;;;;;12.60;98.74;100506.78;5066959;28;20098;-41
2023/07/17 04:09:10;;;;;;;5.53;2.63;;;;;;;12.63;98.75;100506.03;5066865;28;20579;-41
2023/07/17 04:11:37;;;;;;;9.85;2.50;;;;;;;12.66;98.73;100516.44;5067229;28;20082;-41
2023/07/17 04:14:03;;;;;;;7.80;3.22;;;;;;;12.69;98.57;100515.72;5053558;28;20053;-41
2023/07/17 04:16:30;;;;;;;5.78;2.10;;;;;;;12.69;98.70;100512.94;5034995;28;20045;-41
2023/07/17 04:18:57;;;;;;;6.25;2.42;;;;;;;12.70;98.83;100520.09;5053513;28;20095;-40
2023/07/17 04:21:24;;;;;;;6.35;3.00;;;;;;;12.70;98.67;100522.06;5053627;28;20585;-43
2023/07/17 04:23:53;;;;;;;3.47;2.53;;;;;;;12.70;98.71;100522.88;5046359;28;20059;-42
2023/07/17 04:26:20;;;;;;;13.38;2.40;;;;;;;12.67;98.71;100531.13;5054071;28;20048;-43
2023/07/17 04:28:47;;;;;;;7.03;2.47;;;;;;;12.67;98.78;100529.16;5053282;28;20049;-41
2023/07/17 04:31:13;;;;;;;3.53;2.00;;;;;;;12.66;99.03;100535.06;5052649;28;20057;-41
2023/07/17 04:33:40;;;;;;;2.53;1.67;;;;;;;12.66;99.00;100532.28;5053281;28;20045;-40
2023/07/17 04:36:07;;;;;;;4.70;2.30;;;;;;;12.64;98.97;100535.44;5051418;28;20040;-41
2023/07/17 04:38:34;;;;;;;4.95;2.47;;;;;;;12.63;99.12;100533.81;5052789;28;20044;-42
2023/07/17 04:41:01;;;;;;;5.45;2.17;;;;;;;12.62;99.04;100535.00;5042756;28;20098;-41
2023/07/17 04:43:28;;;;;;;6.05;2.25;;;;;;;12.60;99.00;100540.09;5049443;28;20438;-40
2023/07/17 04:45:54;;;;;;;4.28;2.15;;;;;;;12.59;99.28;100544.06;5050841;28;20084;-42
2023/07/17 04:48:21;;;;;;;4.53;2.28;;;;;;;12.57;99.00;100535.28;5048700;28;20049;-41
2023/07/17 04:50:48;;;;;;;6.90;2.28;;;;;;;12.54;99.23;100535.22;5040640;28;20075;-41
2023/07/17 04:53:15;;;;;;;4.22;1.63;;;;;;;12.51;99.19;100535.94;5014358;28;20567;-41
2023/07/17 04:55:42;;;;;;;4.78;2.20;;;;;;;12.51;99.47;100544.25;5041683;28;20044;-41
2023/07/17 04:58:09;;;;;;;3.67;1.90;;;;;;;12.50;99.58;100551.78;5049095;28;20691;-41
2023/07/17 05:00:36;;;;;;;3.83;1.75;;;;;;;12.50;99.61;100550.97;5034374;28;20414;-41
2023/07/17 05:03:03;;;;;;;2.28;1.73;;;;;;;12.51;99.75;100542.28;5010781;28;20049;-42
2023/07/17 05:05:30;;;;;;;8.40;2.13;;;;;;;12.55;99.82;100547.94;4999530;28;20856;-44
2023/07/17 05:07:57;;;;;;;3.65;1.90;;;;;;;12.57;99.55;100551.97;4998131;28;20279;-42
2023/07/17 05:10:23;;;;;;;5.88;1.33;;;;;;;12.55;99.64;100559.03;4997539;28;20057;-42
2023/07/17 05:12:50;;;;;;;2.60;1.35;;;;;;;12.54;99.62;100554.66;4981659;28;20045;-42
2023/07/17 05:15:17;;;;;;;2.00;1.20;;;;;;;12.57;99.99;100563.06;4996985;28;20731;-45
2023/07/17 05:17:43;;;;;;;3.42;1.67;;;;;;;12.58;99.69;100573.00;4982032;28;20046;-41
2023/07/17 05:20:10;;;;;;;9.48;2.67;;;;;;;12.61;100.00;100575.03;4997442;28;20103;-44
2023/07/17 05:22:37;;;;;;;6.20;1.20;;;;;;;12.64;99.88;100579.88;4997830;28;20569;-41
2023/07/17 05:25:05;;;;;;;5.05;1.20;;;;;;;12.67;99.76;100573.59;4997179;28;20688;-41
2023/07/17 05:27:32;;;;;;;2.05;1.10;;;;;;;12.69;99.80;100571.25;4997940;28;21314;-42
2023/07/17 05:29:58;;;;;;;4.03;1.13;;;;;;;12.71;99.54;100574.47;4998174;28;20041;-42
2023/07/17 05:32:25;;;;;;;2.13;1.23;;;;;;;12.72;99.49;100575.28;4997817;28;20652;-43
2023/07/17 05:34:54;;;;;;;3.88;1.10;;;;;;;12.75;99.53;100578.16;4998766;28;20061;-42
2023/07/17 05:37:21;;;;;;;6.25;1.27;;;;;;;12.77;99.67;100577.78;4998242;28;21244;-41
2023/07/17 05:39:48;;;;;;;2.10;1.10;;;;;;;12.81;99.76;100582.22;4997920;28;20069;-43
2023/07/17 05:42:15;;;;;;;3.42;1.30;;;;;;;12.88;99.55;100586.34;4997997;28;20049;-42
2023/07/17 05:44:42;;;;;;;2.70;1.27;;;;;;;12.93;99.45;100586.03;4998842;28;20084;-45
2023/07/17 05:47:10;;;;;;;2.28;0.90;;;;;;;12.95;99.40;100594.81;4999104;28;20051;-42
2023/07/17 05:49:37;;;;;;;3.85;0.80;;;;;;;12.99;99.25;100598.47;4998239;28;20053;-44
2023/07/17 05:52:04;;;;;;;4.78;0.93;;;;;;;13.02;99.18;100600.53;4997603;28;20049;-43
2023/07/17 05:54:31;;;;;;;4.00;0.60;;;;;;;13.06;99.02;100598.63;4997811;28;20628;-43
2023/07/17 05:56:57;;;;;;;4.28;1.20;;;;;;;13.06;98.99;100596.66;4997338;28;20072;-42
2023/07/17 05:59:24;;;;;;;8.63;1.77;;;;;;;13.09;99.04;100600.72;4996789;28;21314;-43
2023/07/17 06:01:51;;;;;;;3.63;0.90;;;;;;;13.13;98.84;100607.16;5007500;28;20064;-42
2023/07/17 06:04:18;;;;;;;2.60;0.90;;;;;;;13.15;98.85;100604.81;5017385;28;20049;-43
2023/07/17 06:06:45;;;;;;;3.63;1.08;;;;;;;13.11;98.73;100604.72;5017286;28;20175;-42
2023/07/17 06:09:11;;;;;;;1.73;1.00;;;;;;;13.09;98.79;100606.25;5015903;28;21893;-44
2023/07/17 06:11:38;;;;;;;8.88;1.85;;;;;;;13.06;98.60;100612.53;5015050;28;20134;-41
2023/07/17 06:14:05;;;;;;;4.13;0.77;;;;;;;13.02;98.71;100612.47;4996969;28;20124;-44
2023/07/17 06:16:31;;;;;;;2.67;0.63;;;;;;;13.00;98.49;100614.00;5014932;28;20224;-43
2023/07/17 06:18:58;;;;;;;11.80;1.98;;;;;;;12.97;98.63;100615.53;5015968;28;20056;-44
2023/07/17 06:21:25;;;;;;;5.30;1.58;;;;;;;12.97;98.62;100625.84;5015787;28;20037;-47
2023/07/17 06:23:52;;;;;;;3.15;1.10;;;;;;;13.04;99.14;100625.97;5015381;28;20059;-43
2023/07/17 06:26:19;;;;;;;4.20;0.90;;;;;;;13.13;98.88;100624.63;5016125;28;20056;-43
2023/07/17 06:28:47;;;;;;;3.55;0.85;;;;;;;13.20;98.64;100621.19;5014577;28;20045;-44
2023/07/17 06:31:14;;;;;;;4.35;0.60;;;;;;;13.21;98.60;100617.25;5014946;28;21385;-43
2023/07/17 06:33:41;;;;;;;8.15;1.30;;;;;;;13.25;98.66;100629.25;5017255;28;20045;-45
2023/07/17 06:36:08;;;;;;;2.67;1.42;;;;;;;13.32;98.52;100632.97;5013633;28;20045;-43
2023/07/17 06:38:35;;;;;;;4.20;0.80;;;;;;;13.40;98.53;100634.72;5016016;28;20045;-42
2023/07/17 06:41:01;;;;;;;5.15;0.95;;;;;;;13.47;98.08;100642.41;5015391;28;20084;-42
2023/07/17 06:43:28;;;;;;;2.55;0.52;;;;;;;13.51;97.75;100642.47;5016443;28;20040;-46
2023/07/17 06:45:55;;;;;;;2.58;0.80;;;;;;;13.53;97.71;100640.94;5017214;28;20080;-46
2023/07/17 06:48:21;;;;;;;2.63;1.23;;;;;;;13.57;97.45;100643.78;5016648;28;20056;-43
2023/07/17 06:50:48;;;;;;;4.53;1.55;;;;;;;13.64;97.45;100650.28;5016896;28;20045;-44
2023/07/17 06:53:16;;;;;;;3.33;1.75;;;;;;;13.75;97.15;100658.84;5016240;28;20048;-43
2023/07/17 06:55:42;;;;;;;8.32;1.00;;;;;;;13.84;97.00;100654.66;5016549;28;20059;-46
2023/07/17 06:58:09;;;;;;;4.50;1.55;;;;;;;13.94;96.83;100664.38;5016490;28;20049;-44
2023/07/17 07:00:37;;;;;;;3.40;0.70;;;;;;;13.96;96.44;100662.84;5015473;28;20063;-43
2023/07/17 07:03:03;;;;;;;2.30;0.95;;;;;;;14.02;96.45;100669.72;4976182;28;20052;-43
2023/07/17 07:05:30;;;;;;;2.92;0.70;;;;;;;14.13;96.45;100674.66;4995508;28;20045;-47
2023/07/17 07:07:57;;;;;;;3.40;0.80;;;;;;;14.20;96.46;100677.56;4995657;28;20392;-46
2023/07/17 07:10:24;;;;;;;3.05;0.85;;;;;;;14.30;96.32;100682.50;4994622;28;20371;-45
2023/07/17 07:12:50;;;;;;;7.38;1.02;;;;;;;14.37;95.89;100689.06;5003794;28;20041;-41
2023/07/17 07:15:17;;;;;;;2.55;0.60;;;;;;;14.43;95.68;100686.75;5027089;28;20052;-42
2023/07/17 07:17:44;;;;;;;2.75;0.90;;;;;;;14.50;95.40;100689.66;5026541;28;20050;-41
2023/07/17 07:20:11;;;;;;;4.05;0.70;;;;;;;14.54;94.97;100693.28;5027859;28;20458;-42
2023/07/17 07:22:38;;;;;;;4.70;0.93;;;;;;;14.56;94.92;100699.31;5020065;28;20061;-43
2023/07/17 07:25:08;;;;;;;1.67;1.02;;;;;;;14.58;94.70;100699.75;5028633;28;20056;-41
2023/07/17 07:27:34;;;;;;;4.32;0.90;;;;;;;14.61;95.38;100690.66;5027667;28;20057;-41
2023/07/17 07:30:01;;;;;;;4.03;1.25;;;;;;;14.73;96.08;100707.16;5027607;28;20052;-41
2023/07/17 07:32:28;;;;;;;5.55;1.20;;;;;;;14.74;95.67;100702.38;5011220;28;20457;-41
2023/07/17 07:34:55;;;;;;;6.20;1.25;;;;;;;14.80;96.17;100712.03;5029269;28;20372;-41
2023/07/17 07:37:21;;;;;;;3.20;0.98;;;;;;;14.90;96.92;100711.41;5028322;28;20534;-42
2023/07/17 07:39:48;;;;;;;5.78;0.98;;;;;;;15.00;97.26;100714.34;5017291;28;20130;-42
2023/07/17 07:42:16;;;;;;;4.45;1.20;;;;;;;15.17;97.97;100722.16;5012702;28;20037;-42
2023/07/17 07:44:43;;;;;;;4.40;1.10;;;;;;;15.38;98.07;100720.84;5030104;28;20049;-40
2023/07/17 07:47:10;;;;;;;4.45;1.02;;;;;;;15.65;98.55;100730.78;5030537;28;20081;-40
2023/07/17 07:49:36;;;;;;;2.13;1.00;;;;;;;15.82;97.23;100733.00;5034007;28;20037;-40
2023/07/17 07:52:03;;;;;;;5.68;1.20;;;;;;;15.77;94.96;100736.16;5034423;28;20038;-39
2023/07/17 07:54:30;;;;;;;1.30;1.20;;;;;;;15.68;93.18;100741.19;5030802;28;20423;-40
2023/07/17 07:56:57;;;;;;;1.80;1.00;;;;;;;15.60;91.63;100733.91;5028392;28;20371;-39
2023/07/17 07:59:24;;;;;;;4.25;1.00;;;;;;;15.45;90.42;100737.69;5034052;28;20067;-40
2023/07/17 08:01:50;;;;;;;4.93;1.58;;;;;;;15.27;89.81;100741.00;5043947;28;20056;-39
2023/07/17 08:04:17;;;;;;;3.80;0.98;;;;;;;15.14;89.64;100750.00;5053773;28;20048;-41
2023/07/17 08:06:44;;;;;;;3.70;1.17;;;;;;;15.06;89.35;100749.06;5051674;28;20456;-41
2023/07/17 08:09:11;;;;;;;3.47;1.60;;;;;;;15.34;89.84;100761.84;5053761;28;20375;-43
2023/07/17 08:11:39;;;;;;;1.83;1.13;;;;;;;15.62;88.56;100756.69;5051146;28;20072;-42
2023/07/17 08:14:06;;;;;;;5.50;1.83;;;;;;;15.90;88.23;100759.84;5052954;28;20045;-42
2023/07/17 08:16:32;;;;;;;4.10;1.92;;;;;;;16.58;87.87;100766.97;5050003;28;20549;-44
2023/07/17 08:18:59;;;;;;;1.90;1.70;;;;;;;16.92;85.72;100760.88;5050507;28;20044;-40
2023/07/17 08:21:26;;;;;;;2.88;1.60;;;;;;;16.85;85.14;100768.41;5053336;28;20439;-40
2023/07/17 08:23:53;;;;;;;5.13;1.50;;;;;;;17.43;84.87;100777.63;5052004;28;20049;-40
2023/07/17 08:26:19;;;;;;;2.00;1.60;;;;;;;17.55;82.95;100774.50;5052813;28;20076;-40
2023/07/17 08:28:46;;;;;;;3.20;1.45;;;;;;;17.41;82.40;100782.81;5051671;28;20104;-40
2023/07/17 08:31:13;;;;;;;2.75;1.42;;;;;;;17.49;81.48;100776.06;5045987;28;20055;-43
2023/07/17 08:33:40;;;;;;;1.67;1.58;;;;;;;17.49;80.99;100783.66;5053355;28;20055;-41
2023/07/17 08:36:07;;;;;;;1.58;1.48;;;;;;;17.55;80.31;100791.31;5053465;28;20059;-45
2023/07/17 08:38:33;;;;;;;3.08;1.70;;;;;;;17.42;79.21;100794.81;5051607;28;20045;-41
2023/07/17 08:41:00;;;;;;;8.60;2.60;;;;;;;17.39;79.50;100796.41;5053280;28;20045;-42
2023/07/17 08:43:27;;;;;;;3.08;1.10;;;;;;;17.45;79.36;100794.00;5053153;28;20043;-41
2023/07/17 08:45:55;;;;;;;4.93;0.90;;;;;;;17.56;78.82;100794.91;5052856;28;20490;-42
2023/07/17 08:48:26;;;;;;;1.92;1.00;;;;;;;17.93;78.51;100803.91;5053167;28;20045;-42
2023/07/17 08:50:55;;;;;;;1.00;0.60;;;;;;;18.43;77.39;100799.28;5052398;28;20381;-42
2023/07/17 08:53:24;;;;;;;1.35;0.90;;;;;;;18.60;75.91;100809.75;5052379;28;20135;-41
2023/07/17 08:55:55;;;;;;;1.23;1.13;;;;;;;18.44;75.79;100809.28;5051185;28;20072;-42
2023/07/17 08:58:27;;;;;;;4.15;1.00;;;;;;;18.33;75.62;100811.25;5020316;28;20425;-41
2023/07/17 09:00:54;;;;;;;;;;;;;;;18.06;76.11;100810.75;5053026;28;20172;-42
2023/07/17 09:03:20;;;;;;;2.47;0.98;;;;;;;18.14;76.34;100820.00;5052132;28;19964;-41
2023/07/17 09:05:48;;;;;;;3.47;0.82;;;;;;;18.31;75.46;100818.47;5052945;28;20059;-42
2023/07/17 09:08:15;;;;;;;1.27;0.60;;;;;;;18.30;74.07;100817.66;5051110;28;20122;-42
2023/07/17 09:10:41;;;;;;;3.15;0.65;;;;;;;18.17;73.91;100827.63;5052651;28;20044;-42
2023/07/17 09:13:09;;;;;;;1.20;0.73;;;;;;;17.90;73.78;100827.09;5047676;28;20045;-41
2023/07/17 09:15:35;;;;;;;0.82;0.65;;;;;;;17.58;74.24;100829.72;5029329;28;20056;-41
2023/07/17 09:18:03;;;;;;;2.33;1.23;;;;;;;17.70;74.22;100831.41;5049806;28;20049;-41
2023/07/17 09:20:30;;;;;;;1.95;0.75;;;;;;;17.78;73.68;100843.44;5051589;28;20120;-41
2023/07/17 09:23:00;;;;;;;3.13;1.83;;;;;;;17.90;73.39;100843.91;5052575;28;20143;-41
2023/07/17 09:25:29;;;;;;;3.28;0.60;;;;;;;18.21;72.57;100848.06;5051007;28;20037;-41
2023/07/17 09:27:57;;;;;;;2.13;0.93;;;;;;;18.17;72.23;100844.44;5034705;28;20425;-41
2023/07/17 09:30:26;;;;;;;1.20;0.85;;;;;;;19.21;71.43;100849.88;5052240;28;20041;-42
2023/07/17 09:33:04;;;;;;;1.13;0.70;;;;;;;20.56;69.56;100853.97;5052525;28;20059;-42
2023/07/17 09:35:31;;;;;;;1.40;0.85;;;;;;;21.40;67.26;100857.41;5038519;28;20041;-41
2023/07/17 09:37:58;;;;;;;3.22;0.88;;;;;;;22.09;65.45;100857.13;5043101;28;20572;-41
2023/07/17 09:40:26;;;;;;;2.08;1.05;;;;;;;22.36;63.61;100855.97;5050196;28;20106;-40
2023/07/17 09:42:54;;;;;;;1.45;0.82;;;;;;;21.57;63.74;100853.63;5033551;28;20110;-41
2023/07/17 09:45:22;;;;;;;2.67;0.75;;;;;;;21.82;64.08;100859.81;5051065;28;20048;-46
2023/07/17 09:47:50;;;;;;;1.48;0.63;;;;;;;22.65;62.68;100855.63;5051814;28;20513;-42
2023/07/17 09:50:23;;;;;;;1.65;1.02;;;;;;;23.16;60.40;100869.38;5051725;28;20055;-41
2023/07/17 09:52:51;;;;;;;1.08;0.55;;;;;;;23.12;59.79;100868.59;5050355;28;20051;-41
2023/07/17 09:55:25;;;;;;;2.25;1.02;;;;;;;23.03;59.55;100865.53;5050727;28;20049;-41
2023/07/17 09:57:57;;;;;;;1.30;1.00;;;;;;;22.65;58.79;100855.63;5051404;28;20544;-41
2023/07/17 10:00:24;;;;;;;;;;;;;;;21.89;60.41;100864.63;5034391;28;20052;-41
2023/07/17 10:03:10;;;;;;;3.88;1.20;;;;;;;21.52;60.97;100859.72;5050216;28;19967;-42
2023/07/17 10:05:38;;;;;;;1.75;0.90;;;;;;;21.39;60.67;100865.09;5033607;28;20048;-43
2023/07/17 10:08:12;;;;;;;2.90;0.70;;;;;;;21.11;60.33;100866.09;5051519;28;20091;-41
2023/07/17 10:10:40;;;;;;;1.42;0.90;;;;;;;20.81;60.40;100865.09;5050117;28;20157;-44
2023/07/17 10:13:08;;;;;;;1.00;0.50;;;;;;;20.40;60.71;100868.53;5050230;28;20041;-41
2023/07/17 10:15:36;;;;;;;0.75;0.75;;;;;;;20.17;61.21;100878.63;5050748;28;20120;-41
2023/07/17 10:18:09;;;;;;;2.85;0.80;;;;;;;19.97;61.41;100883.91;5051167;28;20501;-41
2023/07/17 10:20:38;;;;;;;3.45;1.25;;;;;;;19.65;61.74;100878.34;5049316;28;20095;-44
2023/07/17 10:23:25;;;;;;;2.00;0.77;;;;;;;19.48;62.36;100873.56;5050763;28;20037;-40
2023/07/17 10:26:05;;;;;;;2.05;0.63;;;;;;;19.38;63.12;100879.97;5039464;28;20453;-44
2023/07/17 10:28:34;;;;;;;0.45;0.40;;;;;;;19.41;63.40;100882.00;5050153;28;20044;-42
2023/07/17 10:31:18;;;;;;;0.88;0.50;;;;;;;19.64;63.17;100885.19;5048578;28;20162;-42
2023/07/17 10:33:49;;;;;;;0.75;0.60;;;;;;;19.76;62.74;100884.75;5033299;28;20135;-42
2023/07/17 10:36:16;;;;;;;0.90;0.50;;;;;;;19.74;62.66;100884.38;5051097;28;20045;-43
2023/07/17 10:38:51;;;;;;;0.93;0.50;;;;;;;19.75;63.05;100891.56;5042089;28;20045;-41
2023/07/17 10:41:17;;;;;;;2.28;0.55;;;;;;;19.68;63.24;100891.59;5050010;28;20465;-41
2023/07/17 10:43:57;;;;;;;2.45;0.80;;;;;;;19.77;63.07;100889.19;5051095;28;20123;-48
2023/07/17 10:46:44;;;;;;;1.02;0.50;;;;;;;19.95;62.97;100898.38;5049166;28;20453;-44
2023/07/17 10:49:13;;;;;;;0.77;0.47;;;;;;;20.10;61.75;100895.50;5047228;28;20088;-43
2023/07/17 10:51:47;;;;;;;0.95;0.30;;;;;;;20.18;61.92;100902.72;5040208;28;20040;-41
2023/07/17 10:54:15;;;;;;;0.60;0.40;;;;;;;20.10;61.37;100901.13;5048656;28;20486;-41
2023/07/17 10:56:47;;;;;;;2.55;0.28;;;;;;;19.87;61.25;100904.41;5049113;28;20076;-43
2023/07/17 10:59:17;;;;;;;0.88;0.30;;;;;;;19.64;61.47;100913.28;5033044;28;20140;-43
2023/07/17 11:01:45;;;;;;;1.33;0.47;;;;;;;19.67;62.02;100912.47;5050833;28;20061;-42
2023/07/17 11:04:13;;;;;;;2.10;0.68;;;;;;;19.89;61.61;100908.41;5030182;28;20056;-42
2023/07/17 11:06:41;;;;;;;0.90;0.52;;;;;;;19.93;61.33;100919.66;5050655;28;20052;-43
2023/07/17 11:09:07;;;;;;;3.53;0.50;;;;;;;19.76;61.27;100914.84;5050744;28;20481;-42
2023/07/17 11:11:34;;;;;;;0.65;0.47;;;;;;;19.59;61.63;100926.94;5051190;28;20413;-42
2023/07/17 11:14:03;;;;;;;2.20;0.60;;;;;;;19.54;61.81;100927.34;5032715;28;20048;-41
2023/07/17 11:16:29;;;;;;;1.48;0.60;;;;;;;19.49;61.84;100927.72;5030032;28;20152;-42
2023/07/17 11:18:56;;;;;;;5.40;0.63;;;;;;;19.36;61.80;100938.50;5049997;28;20127;-45
2023/07/17 11:21:25;;;;;;;0.43;0.40;;;;;;;19.30;61.72;100935.28;5046172;28;20045;-42
2023/07/17 11:23:57;;;;;;;2.28;0.65;;;;;;;19.23;62.24;100932.50;5053181;28;20055;-41
2023/07/17 11:26:25;;;;;;;4.55;0.95;;;;;;;19.48;62.18;100932.56;5054786;28;20107;-42